Time;durP1;ratioP1;P1;durP2;ratioP2;P2;SDS_P1;SDS_P2;PMS_P1;PMS_P2;Temp;Humidity;BMP_temperature;BMP_pressure;BME280_temperature;BME280_humidity;BME280_pressure;Samples;Min_cycle;Max_cycle;Signal;HPM_P1;HPM_P2
2023/03/22 00:12:51;;;;;;;327.50;127.20;;;;;;;7.61;68.39;100202.63;682232;1266;139645;-84
2023/03/22 00:27:54;;;;;;;39.10;19.50;;;;;;;7.86;69.92;100193.34;681965;1270;139664;-87
2023/03/22 00:42:57;;;;;;;38.80;18.40;;;;;;;8.49;74.65;100186.65;682185;1264;139478;-83
2023/03/22 00:58:03;;;;;;;38.60;19.30;;;;;;;8.90;75.02;100174.80;682124;1264;139410;-84
2023/03/22 01:13:07;;;;;;;32.10;16.40;;;;;;;9.02;76.60;100157.77;682286;1260;139304;-86
2023/03/22 01:28:10;;;;;;;36.00;17.20;;;;;;;9.18;76.78;100140.10;681824;1263;139202;-84
2023/03/22 01:43:15;;;;;;;33.80;16.30;;;;;;;9.32;77.16;100122.31;682195;1260;138963;-84
2023/03/22 01:58:20;;;;;;;32.90;18.30;;;;;;;9.42;77.82;100096.45;682226;1261;139126;-86
2023/03/22 02:13:57;;;;;;;29.90;16.20;;;;;;;9.38;78.04;100069.42;682079;1264;138891;-85
2023/03/22 02:29:45;;;;;;;34.10;16.90;;;;;;;9.16;78.13;100061.85;682176;1262;138906;-84
2023/03/22 02:45:10;;;;;;;29.30;14.40;;;;;;;9.12;78.34;100053.52;682238;1262;139198;-84
2023/03/22 03:00:17;;;;;;;34.70;18.50;;;;;;;9.19;78.87;100050.78;682383;1261;139114;-84
2023/03/22 03:15:22;;;;;;;41.10;20.40;;;;;;;9.22;80.25;100043.96;682096;1262;139285;-84
2023/03/22 03:30:39;;;;;;;38.10;20.50;;;;;;;9.14;80.15;100040.74;682306;1264;138852;-87
2023/03/22 03:45:43;;;;;;;38.60;19.90;;;;;;;9.09;80.59;100046.74;682174;1264;140255;-84
2023/03/22 04:00:48;;;;;;;49.00;25.30;;;;;;;9.13;80.30;100041.34;682147;1264;138976;-86
2023/03/22 04:16:10;;;;;;;39.40;19.60;;;;;;;9.17;81.23;100040.31;682071;1260;139706;-84
2023/03/22 04:31:13;;;;;;;42.70;22.20;;;;;;;9.13;81.76;100035.95;682206;1265;139146;-85
2023/03/22 04:46:24;;;;;;;46.40;21.70;;;;;;;9.32;81.37;100031.17;682114;1264;139132;-84
2023/03/22 05:01:34;;;;;;;45.90;23.10;;;;;;;9.58;80.77;100024.39;682087;1262;138958;-85
2023/03/22 05:16:45;;;;;;;48.50;25.80;;;;;;;9.54;82.59;100014.27;682235;1264;139711;-86
2023/03/22 05:31:48;;;;;;;49.70;25.00;;;;;;;9.61;83.74;100008.27;682315;1265;138991;-85
2023/03/22 05:46:52;;;;;;;52.40;26.40;;;;;;;9.67;84.33;99993.02;682140;1262;139958;-83
2023/03/22 06:02:07;;;;;;;54.40;28.30;;;;;;;9.90;84.32;99971.66;682210;1261;138847;-85
2023/03/22 06:17:10;;;;;;;42.80;23.00;;;;;;;10.07;84.89;99976.42;682211;1264;139070;-84
2023/03/22 06:32:15;;;;;;;47.10;26.40;;;;;;;10.07;86.02;99971.80;682237;1264;138963;-83
2023/03/22 06:47:19;;;;;;;61.40;29.10;;;;;;;10.14;86.24;99975.06;682153;1264;139522;-85
2023/03/22 07:02:31;;;;;;;90.70;45.90;;;;;;;10.12;88.82;99965.60;682254;1265;138988;-84
2023/03/22 07:17:49;;;;;;;66.30;32.90;;;;;;;10.22;89.90;99956.48;682228;1265;139165;-83
2023/03/22 07:32:52;;;;;;;72.40;37.50;;;;;;;10.34;90.75;99947.04;682112;1262;139111;-84
2023/03/22 07:47:56;;;;;;;76.50;38.20;;;;;;;10.21;92.47;99945.41;682142;1265;139090;-83
2023/03/22 08:03:21;;;;;;;65.60;32.20;;;;;;;10.20;93.69;99943.47;682055;1264;141000;-83
2023/03/22 08:18:32;;;;;;;90.00;43.90;;;;;;;10.28;95.43;99935.72;682163;1265;139638;-85
2023/03/22 08:33:36;;;;;;;86.90;40.00;;;;;;;10.45;96.53;99925.63;681958;1263;139175;-85
2023/03/22 08:48:40;;;;;;;81.90;38.70;;;;;;;10.68;96.93;99929.54;682065;1265;139027;-85
2023/03/22 09:03:49;;;;;;;91.90;43.20;;;;;;;10.96;97.49;99928.20;682206;1260;138761;-84
2023/03/22 09:18:53;;;;;;;85.50;42.30;;;;;;;11.35;97.25;99931.98;682136;1263;139402;-84
2023/03/22 09:33:57;;;;;;;103.60;50.30;;;;;;;11.65;97.66;99919.24;681951;1266;139176;-84
2023/03/22 09:49:06;;;;;;;104.10;46.80;;;;;;;12.03;97.46;99916.91;682201;1266;139528;-83
2023/03/22 10:04:33;;;;;;;96.50;44.60;;;;;;;11.93;99.26;99916.67;682168;1260;139252;-85
2023/03/22 10:19:58;;;;;;;115.70;54.70;;;;;;;12.09;99.90;99911.64;682061;1263;139410;-84
2023/03/22 10:35:02;;;;;;;97.40;44.10;;;;;;;12.41;99.62;99907.36;681973;1265;139463;-84
2023/03/22 10:50:22;;;;;;;107.70;45.80;;;;;;;12.51;99.95;99900.19;682092;1266;139298;-83
2023/03/22 11:05:29;;;;;;;128.90;57.70;;;;;;;12.58;99.99;99887.96;681894;1266;139615;-83
2023/03/22 11:20:33;;;;;;;195.70;86.10;;;;;;;12.77;100.00;99884.05;682137;1264;139416;-83
2023/03/22 11:35:38;;;;;;;119.10;54.80;;;;;;;13.02;100.00;99878.63;682193;1266;139429;-85
2023/03/22 11:50:43;;;;;;;123.90;53.10;;;;;;;13.42;99.55;99872.48;682264;1266;139839;-83
2023/03/22 12:05:51;;;;;;;98.40;46.40;;;;;;;13.58;98.59;99862.23;682172;1265;139359;-84
2023/03/22 12:20:57;;;;;;;119.70;52.00;;;;;;;13.67;98.57;99855.11;682026;1265;139511;-83
2023/03/22 12:36:05;;;;;;;103.00;49.50;;;;;;;13.91;98.11;99839.35;682128;1264;139225;-84
2023/03/22 12:51:11;;;;;;;;;;;;;;;14.00;97.67;99826.48;682004;1270;139937;-84
2023/03/22 13:06:53;;;;;;;82.20;36.00;;;;;;;14.21;97.13;99823.91;682301;1265;125363;-84
2023/03/22 13:22:18;;;;;;;62.20;29.00;;;;;;;14.58;95.30;99819.31;682105;1274;139567;-84
2023/03/22 13:37:44;;;;;;;60.30;31.60;;;;;;;15.13;93.63;99803.46;682149;1267;139147;-83
2023/03/22 13:53:06;;;;;;;60.60;33.90;;;;;;;15.00;92.84;99794.77;682075;1276;139918;-85
2023/03/22 14:08:20;;;;;;;62.20;36.70;;;;;;;15.36;91.70;99776.64;682249;1261;139280;-83
2023/03/22 14:23:38;;;;;;;59.50;32.50;;;;;;;15.97;90.32;99760.92;682135;1266;139141;-84
2023/03/22 14:38:45;;;;;;;50.30;27.40;;;;;;;16.54;88.50;99745.47;682072;1265;139304;-83
2023/03/22 14:53:47;;;;;;;43.80;26.60;;;;;;;16.80;87.89;99727.54;682157;1265;139287;-83
2023/03/22 15:08:49;;;;;;;34.30;23.50;;;;;;;17.47;84.91;99712.30;682034;1266;140307;-88
2023/03/22 15:24:12;;;;;;;35.90;22.20;;;;;;;17.50;83.56;99695.35;682024;1265;139301;-87
2023/03/22 15:39:23;;;;;;;57.40;32.40;;;;;;;17.88;82.91;99697.88;681687;1262;139003;-87
2023/03/22 15:54:32;;;;;;;62.80;41.40;;;;;;;16.76;83.98;99696.02;682141;1260;139272;-86
2023/03/22 16:09:34;;;;;;;66.30;40.70;;;;;;;16.16;85.68;99699.73;681847;1260;139310;-87
2023/03/22 16:24:37;;;;;;;340.40;145.70;;;;;;;15.90;87.19;99694.63;682038;1261;139700;-89
2023/03/22 16:39:41;;;;;;;55.50;33.20;;;;;;;15.80;87.73;99692.09;681681;1265;139756;-88
2023/03/22 16:54:44;;;;;;;63.30;39.40;;;;;;;15.72;87.62;99690.58;681871;1264;139865;-88
2023/03/22 17:09:46;;;;;;;131.70;56.90;;;;;;;15.52;87.98;99698.07;682009;1263;139627;-88
2023/03/22 17:24:49;;;;;;;160.00;72.80;;;;;;;15.34;89.57;99708.72;681936;1262;139611;-88
2023/03/22 17:39:52;;;;;;;67.30;47.20;;;;;;;15.20;89.59;99712.30;682079;1265;139429;-86
2023/03/22 17:54:54;;;;;;;86.90;52.70;;;;;;;15.12;88.78;99704.20;682089;1265;139261;-86
2023/03/22 18:09:56;;;;;;;63.40;35.80;;;;;;;15.23;87.17;99708.83;681906;1265;139551;-86
2023/03/22 18:25:00;;;;;;;86.70;46.20;;;;;;;15.14;86.59;99702.44;682005;1260;139026;-87
2023/03/22 18:40:09;;;;;;;116.00;58.00;;;;;;;15.13;85.80;99686.77;682168;1264;139667;-87
2023/03/22 18:55:13;;;;;;;113.30;49.40;;;;;;;14.96;85.94;99686.51;682127;1263;139543;-87
2023/03/22 19:10:16;;;;;;;80.40;38.50;;;;;;;15.07;85.61;99679.98;682047;1265;140979;-87
2023/03/22 19:25:19;;;;;;;84.70;50.70;;;;;;;15.01;85.37;99671.75;682163;1265;139755;-87
2023/03/22 19:40:22;;;;;;;64.30;37.20;;;;;;;14.92;85.56;99658.85;682084;1262;139553;-87
2023/03/22 19:55:26;;;;;;;56.00;34.20;;;;;;;14.83;85.45;99647.73;682060;1262;139316;-87
2023/03/22 20:10:29;;;;;;;52.50;32.90;;;;;;;14.77;85.38;99639.31;681916;1263;139251;-86
2023/03/22 20:25:32;;;;;;;43.60;28.00;;;;;;;14.45;86.76;99628.31;682125;1265;139099;-85
2023/03/22 20:40:35;;;;;;;44.20;28.90;;;;;;;14.33;87.02;99628.42;681751;1262;139199;-87
2023/03/22 20:55:37;;;;;;;52.10;31.50;;;;;;;14.21;87.33;99618.92;682181;1266;139076;-87
2023/03/22 21:10:39;;;;;;;46.00;29.00;;;;;;;14.04;87.68;99613.63;682037;1262;139287;-87
2023/03/22 21:25:42;;;;;;;43.70;27.90;;;;;;;13.94;87.21;99606.95;682126;1265;139264;-88
2023/03/22 21:40:55;;;;;;;202.60;94.50;;;;;;;13.88;87.47;99592.88;682213;1265;139232;-87
2023/03/22 21:55:57;;;;;;;53.10;33.90;;;;;;;13.94;87.16;99597.69;682295;1265;138348;-83
2023/03/22 22:11:02;;;;;;;49.90;29.90;;;;;;;14.00;86.96;99595.55;682381;1264;139675;-86
2023/03/22 22:26:08;;;;;;;55.10;31.80;;;;;;;13.98;86.78;99592.05;682151;1263;139680;-87
2023/03/22 22:41:15;;;;;;;46.70;28.90;;;;;;;14.03;86.40;99580.20;682092;1265;139255;-88
2023/03/22 22:56:19;;;;;;;45.70;26.90;;;;;;;14.15;85.83;99572.80;682222;1265;139617;-89
2023/03/22 23:11:24;;;;;;;46.00;27.40;;;;;;;14.30;84.48;99560.85;682369;1260;140863;-88
2023/03/22 23:26:26;;;;;;;42.50;26.00;;;;;;;14.27;84.04;99560.31;682338;1262;139387;-88
2023/03/22 23:41:31;;;;;;;49.90;29.70;;;;;;;14.14;84.45;99561.17;682316;1261;139190;-88
2023/03/22 23:56:34;;;;;;;43.20;28.20;;;;;;;14.04;84.44;99547.56;682134;1260;140410;-88
